createdAt,value
2019-04-21T00:01:53.877Z,9.20
2019-04-21T00:04:33.277Z,9.20
2019-04-21T00:07:14.376Z,9.10
2019-04-21T00:09:49.610Z,9.00
2019-04-21T00:12:15.030Z,8.80
2019-04-21T00:14:35.870Z,8.70
2019-04-21T00:17:02.828Z,8.80
2019-04-21T00:19:33.392Z,8.70
2019-04-21T00:22:15.018Z,8.70
2019-04-21T00:24:46.191Z,8.60
2019-04-21T00:27:23.387Z,8.50
2019-04-21T00:29:52.009Z,8.50
2019-04-21T00:32:17.893Z,8.50
2019-04-21T00:34:34.363Z,8.50
2019-04-21T00:37:17.052Z,8.50
2019-04-21T00:40:02.292Z,8.60
2019-04-21T00:42:25.776Z,8.50
2019-04-21T00:44:51.979Z,8.30
2019-04-21T00:47:31.714Z,8.30
2019-04-21T00:50:02.368Z,8.40
2019-04-21T00:52:46.004Z,8.30
2019-04-21T00:55:14.271Z,8.30
2019-04-21T00:57:42.702Z,8.20
2019-04-21T01:00:08.897Z,8.20
2019-04-21T01:02:45.520Z,8.30
2019-04-21T01:05:13.000Z,8.10
2019-04-21T01:07:42.331Z,8.00
2019-04-21T01:10:06.681Z,7.90
2019-04-21T01:12:44.442Z,8.00
2019-04-21T01:15:18.528Z,7.90
2019-04-21T01:17:40.575Z,8.00
2019-04-21T01:20:06.696Z,7.90
2019-04-21T01:22:22.223Z,7.90
2019-04-21T01:25:01.740Z,7.90
2019-04-21T01:27:41.852Z,7.80
2019-04-21T01:30:14.785Z,7.70
2019-04-21T01:32:43.282Z,7.60
2019-04-21T01:35:17.777Z,7.50
2019-04-21T01:37:52.796Z,7.50
2019-04-21T01:40:22.969Z,7.40
2019-04-21T01:43:03.545Z,7.40
2019-04-21T01:45:37.351Z,7.40
2019-04-21T01:48:03.583Z,7.40
2019-04-21T01:50:34.554Z,7.40
2019-04-21T01:53:30.641Z,7.40
2019-04-21T01:56:00.538Z,7.30
2019-04-21T01:58:24.520Z,7.20
2019-04-21T02:01:00.014Z,7.20
2019-04-21T02:03:54.482Z,7.20
2019-04-21T02:06:11.376Z,7.10
2019-04-21T02:08:31.981Z,7.10
2019-04-21T02:11:15.242Z,7.10
2019-04-21T02:13:44.312Z,7.10
2019-04-21T02:16:12.508Z,7.00
2019-04-21T02:18:39.006Z,7.00
2019-04-21T02:20:59.259Z,7.00
2019-04-21T02:23:47.973Z,6.90
2019-04-21T02:26:09.732Z,6.90
2019-04-21T02:28:53.883Z,6.80
2019-04-21T02:31:36.143Z,6.80
2019-04-21T02:36:37.347Z,6.80
2019-04-21T02:39:08.242Z,6.80
2019-04-21T02:44:02.216Z,6.70
2019-04-21T02:46:33.302Z,6.70
2019-04-21T02:49:11.627Z,6.60
2019-04-21T02:56:34.344Z,6.60
2019-04-21T02:59:12.423Z,6.60
2019-04-21T03:01:43.795Z,6.70
2019-04-21T03:07:09.359Z,6.70
2019-04-21T03:09:44.926Z,6.60
2019-04-21T03:14:46.193Z,6.50
2019-04-21T03:17:05.657Z,6.40
2019-04-21T03:19:45.578Z,6.30
2019-04-21T03:22:18.627Z,6.30
2019-04-21T03:24:54.094Z,6.20
2019-04-21T03:27:17.226Z,6.30
2019-04-21T03:29:48.647Z,6.30
2019-04-21T03:35:15.871Z,6.30
2019-04-21T03:37:16.734Z,6.30
2019-04-21T03:39:45.502Z,6.40
2019-04-21T03:44:44.950Z,6.30
2019-04-21T03:47:23.503Z,6.30
2019-04-21T03:52:19.836Z,6.20
2019-04-21T04:00:42.501Z,6.10
2019-04-21T04:03:27.357Z,6.20
2019-04-21T04:05:49.632Z,6.10
2019-04-21T04:08:21.854Z,6.20
2019-04-21T04:10:46.707Z,6.20
2019-04-21T04:13:20.383Z,6.20
2019-04-21T04:18:23.423Z,6.10
2019-04-21T04:23:17.308Z,6.00
2019-04-21T04:25:45.595Z,6.10
2019-04-21T04:28:18.941Z,6.10
2019-04-21T04:30:47.595Z,6.10
2019-04-21T04:33:22.826Z,6.10
2019-04-21T04:38:24.145Z,6.20
2019-04-21T04:40:56.064Z,6.10
2019-04-21T04:43:26.935Z,6.20
2019-04-21T04:45:54.049Z,6.20
2019-04-21T04:53:38.848Z,6.30
2019-04-21T04:56:08.301Z,6.30
2019-04-21T04:58:44.103Z,6.40
2019-04-21T05:01:06.152Z,6.50
2019-04-21T05:03:46.689Z,6.50
2019-04-21T05:11:44.631Z,6.70
2019-04-21T05:13:55.780Z,6.70
2019-04-21T05:16:36.613Z,6.90
2019-04-21T05:19:04.523Z,6.90
2019-04-21T05:21:30.169Z,7.00
2019-04-21T05:23:49.827Z,7.10
2019-04-21T05:26:10.878Z,7.10
2019-04-21T05:28:41.937Z,7.10
2019-04-21T05:31:26.345Z,7.20
2019-04-21T05:34:00.368Z,7.40
2019-04-21T05:36:45.895Z,7.50
2019-04-21T05:39:18.793Z,7.60
2019-04-21T05:41:47.040Z,7.70
2019-04-21T05:44:36.559Z,7.80
2019-04-21T05:47:07.855Z,7.80
2019-04-21T05:49:26.478Z,7.90
2019-04-21T05:51:58.491Z,8.00
2019-04-21T05:54:39.441Z,8.10
2019-04-21T05:57:01.151Z,8.20
2019-04-21T05:59:35.804Z,8.20
2019-04-21T06:02:15.163Z,8.30
2019-04-21T06:07:13.294Z,8.50
2019-04-21T06:09:46.862Z,8.60
2019-04-21T06:12:08.832Z,8.70
2019-04-21T06:14:44.985Z,8.80
2019-04-21T06:17:19.727Z,8.90
2019-04-21T06:22:10.476Z,9.00
2019-04-21T06:25:06.853Z,9.10
2019-04-21T06:27:19.267Z,9.20
2019-04-21T06:29:43.654Z,9.20
2019-04-21T06:35:08.350Z,9.40
2019-04-21T06:37:39.714Z,9.40
2019-04-21T06:40:12.651Z,9.50
2019-04-21T06:42:26.976Z,9.60
2019-04-21T06:44:57.411Z,9.70
2019-04-21T06:47:30.042Z,9.80
2019-04-21T06:49:55.502Z,9.90
2019-04-21T06:55:06.436Z,10.00
2019-04-21T06:59:55.690Z,10.20
2019-04-21T07:05:02.100Z,10.40
2019-04-21T07:07:28.124Z,10.50
2019-04-21T07:10:19.558Z,10.60
2019-04-21T07:12:27.529Z,10.70
2019-04-21T07:15:03.481Z,10.80
2019-04-21T07:17:32.265Z,10.90
2019-04-21T07:20:07.399Z,10.90
2019-04-21T07:22:37.561Z,11.00
2019-04-21T07:25:09.239Z,11.10
2019-04-21T07:27:43.075Z,11.20
2019-04-21T07:30:26.555Z,11.30
2019-04-21T07:32:40.142Z,11.40
2019-04-21T07:35:09.041Z,11.40
2019-04-21T07:37:45.682Z,11.50
2019-04-21T07:40:07.789Z,11.60
2019-04-21T07:42:35.602Z,11.70
2019-04-21T07:45:02.440Z,11.90
2019-04-21T07:47:39.482Z,11.90
2019-04-21T07:50:14.628Z,12.00
2019-04-21T07:52:57.868Z,12.10
2019-04-21T07:57:41.683Z,12.20
2019-04-21T08:02:57.208Z,12.30
2019-04-21T08:07:58.022Z,12.40
2019-04-21T08:10:24.283Z,12.40
2019-04-21T08:12:52.661Z,12.50
2019-04-21T08:15:39.725Z,12.60
2019-04-21T08:17:56.293Z,12.70
2019-04-21T08:20:24.615Z,12.80
2019-04-21T08:22:59.606Z,12.90
2019-04-21T08:25:27.710Z,13.00
2019-04-21T08:27:59.812Z,13.20
2019-04-21T08:30:32.296Z,13.20
2019-04-21T08:38:05.334Z,13.30
2019-04-21T08:40:43.683Z,13.40
2019-04-21T08:43:02.815Z,13.40
2019-04-21T08:45:40.531Z,13.50
2019-04-21T08:48:05.841Z,13.70
2019-04-21T08:50:30.908Z,13.80
2019-04-21T08:53:02.345Z,13.90
2019-04-21T08:55:39.737Z,14.00
2019-04-21T08:58:14.161Z,14.00
2019-04-21T09:00:56.350Z,14.10
2019-04-21T09:03:44.617Z,14.30
2019-04-21T09:06:17.640Z,14.30
2019-04-21T09:08:46.181Z,14.40
2019-04-21T09:11:12.710Z,14.50
2019-04-21T09:13:41.136Z,14.50
2019-04-21T09:16:09.741Z,14.60
2019-04-21T09:18:38.377Z,14.70
2019-04-21T09:21:13.648Z,14.80
2019-04-21T09:23:46.889Z,14.90
2019-04-21T09:26:18.666Z,15.20
2019-04-21T09:28:43.888Z,15.30
2019-04-21T09:31:01.242Z,15.30
2019-04-21T09:33:34.488Z,15.30
2019-04-21T09:36:01.562Z,15.50
2019-04-21T09:38:36.171Z,15.60
2019-04-21T09:40:59.644Z,15.60
2019-04-21T09:43:36.256Z,15.70
2019-04-21T09:45:58.933Z,15.70
2019-04-21T09:48:29.786Z,15.90
2019-04-21T09:50:58.034Z,16.00
2019-04-21T09:53:32.863Z,16.10
2019-04-21T09:56:02.770Z,16.10
2019-04-21T09:58:34.827Z,16.10
2019-04-21T10:01:11.026Z,16.10
2019-04-21T10:03:37.137Z,16.20
2019-04-21T10:05:58.761Z,16.30
2019-04-21T10:08:27.471Z,16.30
2019-04-21T10:10:56.957Z,16.30
2019-04-21T10:13:25.796Z,16.30
2019-04-21T10:15:56.335Z,16.40
2019-04-21T10:18:25.176Z,16.50
2019-04-21T10:20:52.925Z,16.50
2019-04-21T10:23:21.627Z,16.40
2019-04-21T10:25:50.585Z,16.50
2019-04-21T10:28:19.396Z,16.70
2019-04-21T10:30:48.978Z,16.90
2019-04-21T10:33:18.569Z,16.90
2019-04-21T10:35:47.287Z,16.90
2019-04-21T10:38:26.177Z,16.90
2019-04-21T10:40:47.464Z,17.00
2019-04-21T10:43:20.321Z,17.20
2019-04-21T10:45:46.719Z,17.30
2019-04-21T10:48:14.711Z,17.40
2019-04-21T10:50:43.555Z,17.30
2019-04-21T10:53:14.505Z,17.20
2019-04-21T10:55:56.685Z,17.20
2019-04-21T10:58:32.037Z,17.30
2019-04-21T11:01:08.652Z,17.50
2019-04-21T11:03:40.386Z,17.50
2019-04-21T11:06:10.661Z,17.50
2019-04-21T11:08:44.012Z,17.50
2019-04-21T11:11:10.093Z,17.70
2019-04-21T11:13:38.977Z,17.70
2019-04-21T11:16:06.708Z,17.70
2019-04-21T11:18:35.962Z,17.60
2019-04-21T11:21:04.997Z,17.80
2019-04-21T11:23:33.707Z,17.90
2019-04-21T11:26:02.258Z,18.00
2019-04-21T11:28:31.198Z,18.20
2019-04-21T11:31:00.575Z,18.40
2019-04-21T11:33:29.342Z,18.30
2019-04-21T11:35:57.411Z,18.20
2019-04-21T11:39:02.383Z,18.10
2019-04-21T11:41:14.028Z,18.20
2019-04-21T11:43:43.226Z,18.30
2019-04-21T11:46:12.789Z,18.40
2019-04-21T11:48:42.113Z,18.50
2019-04-21T11:51:11.113Z,18.60
2019-04-21T11:53:41.026Z,18.60
2019-04-21T11:56:09.861Z,18.60
2019-04-21T11:58:37.606Z,18.70
2019-04-21T12:01:07.610Z,18.80
2019-04-21T12:03:39.824Z,18.90
2019-04-21T12:06:06.938Z,19.00
2019-04-21T12:08:40.729Z,19.00
2019-04-21T12:11:05.299Z,19.00
2019-04-21T12:13:34.407Z,19.10
2019-04-21T12:16:03.252Z,19.10
2019-04-21T12:18:33.883Z,19.10
2019-04-21T12:21:03.257Z,19.10
2019-04-21T12:23:32.501Z,19.30
2019-04-21T12:26:01.433Z,19.20
2019-04-21T12:28:30.377Z,19.10
2019-04-21T12:31:00.069Z,19.10
2019-04-21T12:33:47.824Z,19.00
2019-04-21T12:36:17.882Z,19.00
2019-04-21T12:38:50.894Z,19.20
2019-04-21T12:41:18.275Z,19.40
2019-04-21T12:43:48.593Z,19.40
2019-04-21T12:46:18.121Z,19.60
2019-04-21T12:48:46.865Z,19.70
2019-04-21T12:51:15.553Z,19.90
2019-04-21T12:53:44.032Z,19.90
2019-04-21T12:56:11.869Z,19.90
2019-04-21T12:58:41.576Z,19.90
2019-04-21T13:01:10.363Z,20.10
2019-04-21T13:03:38.119Z,20.20
2019-04-21T13:06:07.576Z,20.30
2019-04-21T13:08:45.566Z,20.40
2019-04-21T13:11:09.334Z,20.40
2019-04-21T13:13:37.712Z,20.70
2019-04-21T13:16:07.342Z,20.80
2019-04-21T13:18:37.383Z,20.70
2019-04-21T13:21:07.235Z,20.80
2019-04-21T13:23:36.963Z,20.70
2019-04-21T13:26:06.532Z,20.70
2019-04-21T13:28:37.496Z,20.80
2019-04-21T13:31:06.548Z,20.80
2019-04-21T13:33:35.351Z,20.90
2019-04-21T13:36:04.783Z,21.00
2019-04-21T13:38:42.521Z,21.10
2019-04-21T13:41:22.806Z,21.20
2019-04-21T13:43:39.187Z,21.40
2019-04-21T13:46:08.126Z,21.60
2019-04-21T13:48:36.966Z,21.70
2019-04-21T13:51:07.039Z,21.70
2019-04-21T13:53:36.346Z,21.80
2019-04-21T13:56:06.825Z,22.10
2019-04-21T13:58:35.700Z,22.10
2019-04-21T14:01:05.638Z,22.20
2019-04-21T14:03:35.456Z,22.30
2019-04-21T14:06:04.594Z,22.50
2019-04-21T14:08:33.633Z,22.50
2019-04-21T14:11:02.408Z,22.70
2019-04-21T14:13:32.271Z,23.10
2019-04-21T14:16:02.152Z,23.70
2019-04-21T14:18:31.086Z,24.80
2019-04-21T14:21:01.005Z,25.50
2019-04-21T14:23:36.000Z,27.00
2019-04-21T14:26:00.112Z,28.90
2019-04-21T14:28:30.199Z,31.50
2019-04-21T14:30:59.022Z,33.50
2019-04-21T14:33:27.939Z,35.60
2019-04-21T14:35:56.906Z,35.40
2019-04-21T14:38:26.802Z,36.10
2019-04-21T14:40:56.569Z,36.40
2019-04-21T14:43:25.949Z,35.60
2019-04-21T14:46:09.089Z,36.10
2019-04-21T14:48:57.111Z,36.60
2019-04-21T14:51:31.600Z,35.40
2019-04-21T14:54:05.833Z,35.80
2019-04-21T14:56:35.584Z,34.30
2019-04-21T14:59:05.598Z,34.40
2019-04-21T15:01:35.881Z,35.10
2019-04-21T15:04:05.870Z,33.60
2019-04-21T15:06:34.770Z,33.00
2019-04-21T15:09:05.312Z,34.00
2019-04-21T15:11:33.995Z,33.50
2019-04-21T15:14:04.019Z,33.10
2019-04-21T15:16:33.185Z,33.20
2019-04-21T15:19:04.314Z,33.30
2019-04-21T15:21:33.409Z,33.60
2019-04-21T15:24:02.524Z,34.20
2019-04-21T15:26:32.378Z,33.60
2019-04-21T15:29:02.602Z,33.50
2019-04-21T15:31:34.806Z,33.70
2019-04-21T15:34:01.756Z,33.70
2019-04-21T15:36:32.183Z,34.00
2019-04-21T15:39:01.549Z,34.50
2019-04-21T15:41:30.328Z,35.40
2019-04-21T15:44:01.261Z,34.70
2019-04-21T15:46:32.168Z,34.30
2019-04-21T15:49:07.021Z,33.10
2019-04-21T15:51:35.768Z,33.00
2019-04-21T15:54:04.925Z,33.40
2019-04-21T15:56:41.097Z,33.60
2019-04-21T15:59:17.186Z,33.60
2019-04-21T16:01:50.692Z,33.70
2019-04-21T16:04:20.775Z,33.50
2019-04-21T16:06:49.896Z,33.00
2019-04-21T16:09:21.746Z,32.90
2019-04-21T16:11:49.732Z,33.10
2019-04-21T16:14:18.717Z,32.60
2019-04-21T16:16:47.518Z,32.10
2019-04-21T16:19:16.546Z,32.70
2019-04-21T16:21:46.535Z,33.30
2019-04-21T16:24:16.343Z,32.10
2019-04-21T16:26:46.741Z,31.80
2019-04-21T16:29:15.604Z,31.90
2019-04-21T16:31:44.299Z,31.60
2019-04-21T16:34:13.779Z,31.50
2019-04-21T16:36:43.542Z,30.70
2019-04-21T16:39:13.200Z,29.40
2019-04-21T16:41:42.560Z,28.30
2019-04-21T16:44:11.388Z,27.50
2019-04-21T16:46:41.274Z,26.80
2019-04-21T16:49:11.726Z,26.00
2019-04-21T16:51:40.619Z,24.90
2019-04-21T16:54:11.528Z,24.70
2019-04-21T16:56:55.152Z,24.30
2019-04-21T16:59:28.696Z,23.90
2019-04-21T17:01:58.760Z,23.60
2019-04-21T17:04:30.664Z,23.40
2019-04-21T17:07:00.955Z,23.30
2019-04-21T17:09:34.699Z,23.10
2019-04-21T17:12:09.172Z,22.90
2019-04-21T17:14:53.559Z,22.40
2019-04-21T17:17:32.267Z,22.40
2019-04-21T17:19:46.569Z,22.20
2019-04-21T17:22:17.557Z,22.00
2019-04-21T17:24:48.412Z,21.90
2019-04-21T17:27:20.841Z,21.60
2019-04-21T17:29:50.718Z,21.50
2019-04-21T17:32:20.539Z,21.30
2019-04-21T17:34:52.028Z,21.10
2019-04-21T17:37:27.303Z,20.90
2019-04-21T17:39:56.959Z,20.80
2019-04-21T17:42:34.452Z,20.70
2019-04-21T17:44:57.273Z,20.50
2019-04-21T17:47:34.708Z,20.40
2019-04-21T17:50:11.691Z,20.30
2019-04-21T17:52:48.610Z,20.20
2019-04-21T17:55:25.444Z,20.10
2019-04-21T17:58:03.431Z,19.90
2019-04-21T18:01:05.286Z,19.80
2019-04-21T18:03:28.108Z,19.60
2019-04-21T18:05:43.541Z,19.40
2019-04-21T18:08:19.074Z,19.30
2019-04-21T18:10:40.176Z,19.20
2019-04-21T18:13:04.276Z,19.20
2019-04-21T18:15:45.641Z,19.00
2019-04-21T18:17:56.639Z,19.00
2019-04-21T18:20:30.129Z,18.80
2019-04-21T18:23:02.009Z,18.70
2019-04-21T18:25:45.099Z,18.60
2019-04-21T18:28:02.976Z,18.50
2019-04-21T18:30:42.350Z,18.40
2019-04-21T18:33:17.787Z,18.30
2019-04-21T18:36:00.216Z,18.30
2019-04-21T18:39:04.229Z,18.10
2019-04-21T18:41:19.777Z,18.00
2019-04-21T18:44:28.282Z,17.80
2019-04-21T18:46:55.398Z,17.80
2019-04-21T18:49:06.733Z,17.70
2019-04-21T18:52:02.339Z,17.60
2019-04-21T18:54:45.931Z,17.40
2019-04-21T18:57:08.203Z,17.30
2019-04-21T18:59:35.727Z,17.30
2019-04-21T19:02:05.909Z,17.20
2019-04-21T19:04:33.858Z,17.10
2019-04-21T19:07:15.535Z,17.00
2019-04-21T19:10:19.079Z,16.90
2019-04-21T19:12:23.672Z,16.80
2019-04-21T19:14:47.900Z,16.80
2019-04-21T19:20:02.035Z,16.60
2019-04-21T19:22:15.619Z,16.50
2019-04-21T19:24:57.241Z,16.40
2019-04-21T19:27:23.780Z,16.40
2019-04-21T19:30:01.588Z,16.20
2019-04-21T19:34:39.884Z,16.10
2019-04-21T19:37:11.441Z,16.00
2019-04-21T19:39:48.842Z,16.00
2019-04-21T19:42:16.411Z,15.90
2019-04-21T19:44:52.564Z,15.80
2019-04-21T19:47:28.108Z,15.80
2019-04-21T19:49:58.285Z,15.70
2019-04-21T19:52:15.448Z,15.70
2019-04-21T19:54:42.686Z,15.60
2019-04-21T19:57:07.117Z,15.50
2019-04-21T19:59:42.599Z,15.60
2019-04-21T20:02:05.007Z,15.50
2019-04-21T20:04:41.803Z,15.50
2019-04-21T20:07:21.090Z,15.40
2019-04-21T20:09:50.419Z,15.30
2019-04-21T20:12:28.840Z,15.30
2019-04-21T20:14:59.471Z,15.30
2019-04-21T20:17:18.867Z,15.20
2019-04-21T20:19:36.272Z,15.20
2019-04-21T20:22:05.334Z,15.20
2019-04-21T20:24:36.042Z,15.10
2019-04-21T20:27:13.585Z,15.00
2019-04-21T20:29:57.968Z,15.00
2019-04-21T20:32:38.327Z,15.00
2019-04-21T20:35:01.010Z,14.90
2019-04-21T20:37:26.811Z,14.90
2019-04-21T20:39:46.230Z,14.80
2019-04-21T20:42:21.193Z,14.80
2019-04-21T20:44:58.384Z,14.80
2019-04-21T20:47:19.761Z,14.70
2019-04-21T20:49:52.714Z,14.70
2019-04-21T20:52:30.452Z,14.60
2019-04-21T20:54:56.727Z,14.60
2019-04-21T20:57:28.079Z,14.60
2019-04-21T21:00:02.369Z,14.50
2019-04-21T21:02:29.919Z,14.50
2019-04-21T21:04:51.525Z,14.40
2019-04-21T21:07:40.504Z,14.50
2019-04-21T21:10:00.503Z,14.30
2019-04-21T21:12:37.139Z,14.30
2019-04-21T21:14:56.903Z,14.30
2019-04-21T21:20:02.698Z,14.20
2019-04-21T21:22:29.358Z,14.20
2019-04-21T21:25:03.050Z,14.10
2019-04-21T21:27:26.808Z,14.10
2019-04-21T21:30:04.792Z,14.00
2019-04-21T21:32:34.236Z,13.90
2019-04-21T21:35:06.307Z,13.90
2019-04-21T21:37:36.874Z,13.90
2019-04-21T21:40:14.370Z,13.90
2019-04-21T21:42:27.537Z,13.90
2019-04-21T21:44:58.587Z,13.90
2019-04-21T21:47:39.349Z,13.80
2019-04-21T21:50:00.788Z,13.70
2019-04-21T21:52:36.756Z,13.70
2019-04-21T21:54:53.898Z,13.60
2019-04-21T21:57:23.014Z,13.50
2019-04-21T21:59:54.290Z,13.50
2019-04-21T22:02:32.936Z,13.50
2019-04-21T22:05:01.141Z,13.50
2019-04-21T22:07:26.920Z,13.40
2019-04-21T22:09:52.503Z,13.30
2019-04-21T22:12:22.176Z,13.40
2019-04-21T22:14:55.136Z,13.30
2019-04-21T22:17:36.753Z,13.30
2019-04-21T22:20:13.283Z,13.20
2019-04-21T22:22:36.765Z,13.20
2019-04-21T22:25:02.667Z,13.20
2019-04-21T22:27:23.466Z,13.20
2019-04-21T22:29:57.154Z,13.10
2019-04-21T22:32:27.498Z,13.10
2019-04-21T22:34:58.304Z,13.20
2019-04-21T22:37:38.097Z,13.10
2019-04-21T22:40:08.591Z,13.00
2019-04-21T22:42:29.588Z,13.00
2019-04-21T22:44:54.553Z,13.00
2019-04-21T22:47:26.972Z,12.90
2019-04-21T22:49:52.714Z,12.90
2019-04-21T22:52:25.809Z,12.90
2019-04-21T22:54:52.706Z,12.80
2019-04-21T22:57:25.503Z,12.80
2019-04-21T22:59:59.928Z,12.80
2019-04-21T23:02:28.568Z,12.90
2019-04-21T23:04:58.126Z,12.80
2019-04-21T23:07:26.319Z,12.80
2019-04-21T23:09:55.541Z,12.80
2019-04-21T23:12:28.206Z,12.80
2019-04-21T23:15:01.884Z,12.80
2019-04-21T23:17:49.403Z,12.70
2019-04-21T23:20:17.295Z,12.70
2019-04-21T23:22:52.715Z,12.60
2019-04-21T23:25:13.613Z,12.60
2019-04-21T23:27:46.843Z,12.60
2019-04-21T23:30:20.325Z,12.60
2019-04-21T23:32:36.333Z,12.60
2019-04-21T23:35:02.856Z,12.60
2019-04-21T23:37:32.736Z,12.60
2019-04-21T23:40:01.020Z,12.50
2019-04-21T23:42:34.286Z,12.50
2019-04-21T23:45:01.337Z,12.50
2019-04-21T23:47:45.567Z,12.50
2019-04-21T23:50:07.463Z,12.50
2019-04-21T23:52:31.821Z,12.40
2019-04-21T23:55:01.073Z,12.40
2019-04-21T23:57:37.199Z,12.40
